sensor_id;sensor_type;location;lat;lon;timestamp;P1;durP1;ratioP1;P2;durP2;ratioP2
68106;SDS011;54892;47.488;19.026;2022-12-18T00:00:18;25.92;;;10.98;;
68106;SDS011;54892;47.488;19.026;2022-12-18T00:03:22;24.60;;;10.07;;
68106;SDS011;54892;47.488;19.026;2022-12-18T00:06:26;23.77;;;10.52;;
68106;SDS011;54892;47.488;19.026;2022-12-18T00:09:30;28.38;;;10.05;;
68106;SDS011;54892;47.488;19.026;2022-12-18T00:12:35;29.58;;;9.98;;
68106;SDS011;54892;47.488;19.026;2022-12-18T00:15:38;28.38;;;10.50;;
68106;SDS011;54892;47.488;19.026;2022-12-18T00:18:42;23.70;;;10.50;;
68106;SDS011;54892;47.488;19.026;2022-12-18T00:21:47;27.83;;;10.43;;
68106;SDS011;54892;47.488;19.026;2022-12-18T00:24:51;23.20;;;9.63;;
68106;SDS011;54892;47.488;19.026;2022-12-18T00:27:55;26.77;;;10.18;;
68106;SDS011;54892;47.488;19.026;2022-12-18T00:30:59;26.95;;;9.57;;
68106;SDS011;54892;47.488;19.026;2022-12-18T00:34:03;23.50;;;9.98;;
68106;SDS011;54892;47.488;19.026;2022-12-18T00:37:07;26.73;;;10.20;;
68106;SDS011;54892;47.488;19.026;2022-12-18T00:40:10;28.62;;;10.00;;
68106;SDS011;54892;47.488;19.026;2022-12-18T00:43:16;30.75;;;9.70;;
68106;SDS011;54892;47.488;19.026;2022-12-18T00:46:18;22.00;;;10.10;;
68106;SDS011;54892;47.488;19.026;2022-12-18T00:49:22;26.60;;;9.55;;
68106;SDS011;54892;47.488;19.026;2022-12-18T00:52:26;25.10;;;9.27;;
68106;SDS011;54892;47.488;19.026;2022-12-18T00:55:30;26.15;;;9.90;;
68106;SDS011;54892;47.488;19.026;2022-12-18T00:58:38;22.60;;;9.38;;
68106;SDS011;54892;47.488;19.026;2022-12-18T01:01:42;26.73;;;10.32;;
68106;SDS011;54892;47.488;19.026;2022-12-18T01:04:45;26.40;;;9.95;;
68106;SDS011;54892;47.488;19.026;2022-12-18T01:07:49;25.55;;;9.82;;
68106;SDS011;54892;47.488;19.026;2022-12-18T01:10:52;26.85;;;10.60;;
68106;SDS011;54892;47.488;19.026;2022-12-18T01:13:56;25.62;;;9.50;;
68106;SDS011;54892;47.488;19.026;2022-12-18T01:16:59;24.73;;;9.73;;
68106;SDS011;54892;47.488;19.026;2022-12-18T01:20:04;26.55;;;10.18;;
68106;SDS011;54892;47.488;19.026;2022-12-18T01:23:08;25.02;;;10.00;;
68106;SDS011;54892;47.488;19.026;2022-12-18T01:26:12;31.67;;;10.70;;
68106;SDS011;54892;47.488;19.026;2022-12-18T01:29:20;28.75;;;10.73;;
68106;SDS011;54892;47.488;19.026;2022-12-18T01:32:23;24.63;;;10.07;;
68106;SDS011;54892;47.488;19.026;2022-12-18T01:35:26;30.75;;;10.57;;
68106;SDS011;54892;47.488;19.026;2022-12-18T01:38:30;31.83;;;9.88;;
68106;SDS011;54892;47.488;19.026;2022-12-18T01:41:34;23.92;;;9.45;;
68106;SDS011;54892;47.488;19.026;2022-12-18T01:45:03;27.00;;;10.32;;
68106;SDS011;54892;47.488;19.026;2022-12-18T01:48:08;26.85;;;10.15;;
68106;SDS011;54892;47.488;19.026;2022-12-18T01:51:12;21.50;;;9.88;;
68106;SDS011;54892;47.488;19.026;2022-12-18T01:54:15;23.90;;;9.23;;
68106;SDS011;54892;47.488;19.026;2022-12-18T01:57:20;25.00;;;9.70;;
68106;SDS011;54892;47.488;19.026;2022-12-18T02:00:26;25.88;;;10.00;;
68106;SDS011;54892;47.488;19.026;2022-12-18T02:03:30;23.87;;;9.20;;
68106;SDS011;54892;47.488;19.026;2022-12-18T02:06:34;24.40;;;9.57;;
68106;SDS011;54892;47.488;19.026;2022-12-18T02:09:43;27.73;;;9.18;;
68106;SDS011;54892;47.488;19.026;2022-12-18T02:12:52;20.80;;;8.40;;
68106;SDS011;54892;47.488;19.026;2022-12-18T02:16:01;26.17;;;9.40;;
68106;SDS011;54892;47.488;19.026;2022-12-18T02:19:15;28.83;;;10.15;;
68106;SDS011;54892;47.488;19.026;2022-12-18T02:22:34;24.52;;;9.50;;
68106;SDS011;54892;47.488;19.026;2022-12-18T02:25:52;26.45;;;9.18;;
68106;SDS011;54892;47.488;19.026;2022-12-18T02:29:11;24.05;;;9.32;;
68106;SDS011;54892;47.488;19.026;2022-12-18T02:32:20;25.90;;;9.38;;
68106;SDS011;54892;47.488;19.026;2022-12-18T02:35:29;33.30;;;9.60;;
68106;SDS011;54892;47.488;19.026;2022-12-18T02:38:34;24.90;;;9.98;;
68106;SDS011;54892;47.488;19.026;2022-12-18T02:41:40;30.10;;;9.35;;
68106;SDS011;54892;47.488;19.026;2022-12-18T02:47:49;25.70;;;9.00;;
68106;SDS011;54892;47.488;19.026;2022-12-18T02:50:54;23.95;;;9.48;;
68106;SDS011;54892;47.488;19.026;2022-12-18T02:54:05;23.10;;;9.32;;
68106;SDS011;54892;47.488;19.026;2022-12-18T02:57:16;21.92;;;9.35;;
68106;SDS011;54892;47.488;19.026;2022-12-18T03:00:27;27.92;;;10.02;;
68106;SDS011;54892;47.488;19.026;2022-12-18T03:03:35;22.77;;;9.70;;
68106;SDS011;54892;47.488;19.026;2022-12-18T03:06:44;26.15;;;9.98;;
68106;SDS011;54892;47.488;19.026;2022-12-18T03:09:51;26.30;;;10.23;;
68106;SDS011;54892;47.488;19.026;2022-12-18T03:13:00;23.98;;;9.80;;
68106;SDS011;54892;47.488;19.026;2022-12-18T03:16:08;23.42;;;9.45;;
68106;SDS011;54892;47.488;19.026;2022-12-18T03:19:14;28.62;;;10.52;;
68106;SDS011;54892;47.488;19.026;2022-12-18T03:22:21;23.55;;;10.25;;
68106;SDS011;54892;47.488;19.026;2022-12-18T03:25:26;28.20;;;10.47;;
68106;SDS011;54892;47.488;19.026;2022-12-18T03:28:32;28.40;;;10.23;;
68106;SDS011;54892;47.488;19.026;2022-12-18T03:31:40;27.62;;;10.18;;
68106;SDS011;54892;47.488;19.026;2022-12-18T03:34:46;24.77;;;10.23;;
68106;SDS011;54892;47.488;19.026;2022-12-18T03:37:53;27.05;;;9.95;;
68106;SDS011;54892;47.488;19.026;2022-12-18T03:40:58;25.33;;;10.30;;
68106;SDS011;54892;47.488;19.026;2022-12-18T03:44:08;33.58;;;11.80;;
68106;SDS011;54892;47.488;19.026;2022-12-18T03:47:16;25.85;;;10.10;;
68106;SDS011;54892;47.488;19.026;2022-12-18T03:50:30;31.17;;;9.93;;
68106;SDS011;54892;47.488;19.026;2022-12-18T03:53:41;31.45;;;10.38;;
68106;SDS011;54892;47.488;19.026;2022-12-18T03:56:52;25.95;;;9.80;;
68106;SDS011;54892;47.488;19.026;2022-12-18T04:00:03;25.20;;;10.27;;
68106;SDS011;54892;47.488;19.026;2022-12-18T04:03:08;24.30;;;10.25;;
68106;SDS011;54892;47.488;19.026;2022-12-18T04:06:14;26.62;;;9.75;;
68106;SDS011;54892;47.488;19.026;2022-12-18T04:09:19;25.73;;;10.65;;
68106;SDS011;54892;47.488;19.026;2022-12-18T04:12:24;29.58;;;11.02;;
68106;SDS011;54892;47.488;19.026;2022-12-18T04:15:30;24.37;;;9.98;;
68106;SDS011;54892;47.488;19.026;2022-12-18T04:18:37;28.55;;;9.95;;
68106;SDS011;54892;47.488;19.026;2022-12-18T04:21:40;25.88;;;10.00;;
68106;SDS011;54892;47.488;19.026;2022-12-18T04:24:44;27.00;;;10.02;;
68106;SDS011;54892;47.488;19.026;2022-12-18T04:27:47;26.95;;;10.60;;
68106;SDS011;54892;47.488;19.026;2022-12-18T04:30:53;25.60;;;10.15;;
68106;SDS011;54892;47.488;19.026;2022-12-18T04:33:56;31.15;;;10.80;;
68106;SDS011;54892;47.488;19.026;2022-12-18T04:37:00;27.80;;;10.35;;
68106;SDS011;54892;47.488;19.026;2022-12-18T04:40:03;27.52;;;10.55;;
68106;SDS011;54892;47.488;19.026;2022-12-18T04:43:07;29.12;;;11.10;;
68106;SDS011;54892;47.488;19.026;2022-12-18T04:46:12;26.20;;;10.55;;
68106;SDS011;54892;47.488;19.026;2022-12-18T04:49:16;30.20;;;10.77;;
68106;SDS011;54892;47.488;19.026;2022-12-18T04:52:19;28.70;;;10.05;;
68106;SDS011;54892;47.488;19.026;2022-12-18T04:55:26;29.08;;;10.95;;
68106;SDS011;54892;47.488;19.026;2022-12-18T04:58:30;25.48;;;9.35;;
68106;SDS011;54892;47.488;19.026;2022-12-18T05:01:34;26.75;;;9.70;;
68106;SDS011;54892;47.488;19.026;2022-12-18T05:04:38;26.48;;;10.95;;
68106;SDS011;54892;47.488;19.026;2022-12-18T05:07:41;29.10;;;10.65;;
68106;SDS011;54892;47.488;19.026;2022-12-18T05:10:45;25.20;;;9.68;;
68106;SDS011;54892;47.488;19.026;2022-12-18T05:13:48;26.42;;;10.38;;
68106;SDS011;54892;47.488;19.026;2022-12-18T05:16:53;29.37;;;10.15;;
68106;SDS011;54892;47.488;19.026;2022-12-18T05:20:01;25.60;;;10.20;;
68106;SDS011;54892;47.488;19.026;2022-12-18T05:23:06;27.17;;;10.80;;
68106;SDS011;54892;47.488;19.026;2022-12-18T05:26:10;24.63;;;9.85;;
68106;SDS011;54892;47.488;19.026;2022-12-18T05:29:19;28.98;;;10.25;;
68106;SDS011;54892;47.488;19.026;2022-12-18T05:32:23;26.23;;;9.75;;
68106;SDS011;54892;47.488;19.026;2022-12-18T05:35:27;26.20;;;9.60;;
68106;SDS011;54892;47.488;19.026;2022-12-18T05:38:31;28.83;;;10.60;;
68106;SDS011;54892;47.488;19.026;2022-12-18T05:41:35;23.30;;;9.25;;
68106;SDS011;54892;47.488;19.026;2022-12-18T05:44:39;23.83;;;10.55;;
68106;SDS011;54892;47.488;19.026;2022-12-18T05:47:43;24.17;;;9.88;;
68106;SDS011;54892;47.488;19.026;2022-12-18T05:50:48;26.35;;;9.65;;
68106;SDS011;54892;47.488;19.026;2022-12-18T05:53:52;26.83;;;10.43;;
68106;SDS011;54892;47.488;19.026;2022-12-18T05:56:55;23.80;;;8.88;;
68106;SDS011;54892;47.488;19.026;2022-12-18T05:59:59;24.63;;;9.32;;
68106;SDS011;54892;47.488;19.026;2022-12-18T06:03:03;21.73;;;9.20;;
68106;SDS011;54892;47.488;19.026;2022-12-18T06:06:13;23.58;;;9.20;;
68106;SDS011;54892;47.488;19.026;2022-12-18T06:09:17;23.05;;;8.98;;
68106;SDS011;54892;47.488;19.026;2022-12-18T06:12:21;29.73;;;10.52;;
68106;SDS011;54892;47.488;19.026;2022-12-18T06:15:25;21.17;;;8.55;;
68106;SDS011;54892;47.488;19.026;2022-12-18T06:18:30;23.77;;;9.52;;
68106;SDS011;54892;47.488;19.026;2022-12-18T06:21:33;22.27;;;8.48;;
68106;SDS011;54892;47.488;19.026;2022-12-18T06:24:37;32.33;;;10.45;;
68106;SDS011;54892;47.488;19.026;2022-12-18T06:27:40;26.73;;;9.20;;
68106;SDS011;54892;47.488;19.026;2022-12-18T06:30:44;20.92;;;8.90;;
68106;SDS011;54892;47.488;19.026;2022-12-18T06:33:49;23.90;;;8.88;;
68106;SDS011;54892;47.488;19.026;2022-12-18T06:36:55;23.15;;;8.40;;
68106;SDS011;54892;47.488;19.026;2022-12-18T06:39:59;25.40;;;8.35;;
68106;SDS011;54892;47.488;19.026;2022-12-18T06:43:04;16.87;;;7.13;;
68106;SDS011;54892;47.488;19.026;2022-12-18T06:46:07;17.20;;;7.68;;
68106;SDS011;54892;47.488;19.026;2022-12-18T06:49:12;22.27;;;7.90;;
68106;SDS011;54892;47.488;19.026;2022-12-18T06:52:15;20.83;;;8.73;;
68106;SDS011;54892;47.488;19.026;2022-12-18T06:55:19;22.62;;;8.27;;
68106;SDS011;54892;47.488;19.026;2022-12-18T06:58:22;21.65;;;8.63;;
68106;SDS011;54892;47.488;19.026;2022-12-18T07:01:26;21.00;;;8.25;;
68106;SDS011;54892;47.488;19.026;2022-12-18T07:04:33;23.12;;;8.63;;
68106;SDS011;54892;47.488;19.026;2022-12-18T07:07:37;20.85;;;9.10;;
68106;SDS011;54892;47.488;19.026;2022-12-18T07:10:41;25.65;;;8.88;;
68106;SDS011;54892;47.488;19.026;2022-12-18T07:16:50;22.87;;;8.90;;
68106;SDS011;54892;47.488;19.026;2022-12-18T07:19:56;24.33;;;8.00;;
68106;SDS011;54892;47.488;19.026;2022-12-18T07:23:01;23.30;;;8.50;;
68106;SDS011;54892;47.488;19.026;2022-12-18T07:26:05;19.10;;;7.07;;
68106;SDS011;54892;47.488;19.026;2022-12-18T07:29:11;19.85;;;7.57;;
68106;SDS011;54892;47.488;19.026;2022-12-18T07:32:14;20.02;;;7.45;;
68106;SDS011;54892;47.488;19.026;2022-12-18T07:35:20;22.35;;;6.93;;
68106;SDS011;54892;47.488;19.026;2022-12-18T07:38:25;22.35;;;8.20;;
68106;SDS011;54892;47.488;19.026;2022-12-18T07:41:29;20.88;;;8.02;;
68106;SDS011;54892;47.488;19.026;2022-12-18T07:44:32;28.67;;;8.68;;
68106;SDS011;54892;47.488;19.026;2022-12-18T07:47:35;26.73;;;9.55;;
68106;SDS011;54892;47.488;19.026;2022-12-18T07:50:40;22.75;;;9.15;;
68106;SDS011;54892;47.488;19.026;2022-12-18T07:53:44;22.83;;;8.65;;
68106;SDS011;54892;47.488;19.026;2022-12-18T07:56:48;24.95;;;9.00;;
68106;SDS011;54892;47.488;19.026;2022-12-18T07:59:51;24.52;;;9.88;;
68106;SDS011;54892;47.488;19.026;2022-12-18T08:02:55;31.65;;;10.77;;
68106;SDS011;54892;47.488;19.026;2022-12-18T08:06:01;29.83;;;11.27;;
68106;SDS011;54892;47.488;19.026;2022-12-18T08:09:05;31.90;;;11.82;;
68106;SDS011;54892;47.488;19.026;2022-12-18T08:12:10;35.47;;;12.15;;
68106;SDS011;54892;47.488;19.026;2022-12-18T08:15:14;28.92;;;11.70;;
68106;SDS011;54892;47.488;19.026;2022-12-18T08:18:17;33.47;;;13.07;;
68106;SDS011;54892;47.488;19.026;2022-12-18T08:21:23;35.60;;;13.30;;
68106;SDS011;54892;47.488;19.026;2022-12-18T08:24:28;35.80;;;13.68;;
68106;SDS011;54892;47.488;19.026;2022-12-18T08:27:31;28.85;;;12.32;;
68106;SDS011;54892;47.488;19.026;2022-12-18T08:30:35;31.52;;;13.15;;
68106;SDS011;54892;47.488;19.026;2022-12-18T08:33:38;35.22;;;13.50;;
68106;SDS011;54892;47.488;19.026;2022-12-18T08:36:44;27.02;;;11.95;;
68106;SDS011;54892;47.488;19.026;2022-12-18T08:39:48;30.80;;;13.02;;
68106;SDS011;54892;47.488;19.026;2022-12-18T08:42:51;28.98;;;12.50;;
68106;SDS011;54892;47.488;19.026;2022-12-18T08:46:12;32.58;;;13.50;;
68106;SDS011;54892;47.488;19.026;2022-12-18T08:49:16;35.92;;;13.62;;
68106;SDS011;54892;47.488;19.026;2022-12-18T08:52:21;28.65;;;11.75;;
68106;SDS011;54892;47.488;19.026;2022-12-18T08:55:24;34.72;;;12.30;;
68106;SDS011;54892;47.488;19.026;2022-12-18T08:58:27;34.70;;;12.73;;
68106;SDS011;54892;47.488;19.026;2022-12-18T09:01:31;29.60;;;11.85;;
68106;SDS011;54892;47.488;19.026;2022-12-18T09:04:34;30.27;;;13.23;;
68106;SDS011;54892;47.488;19.026;2022-12-18T09:07:39;32.13;;;12.50;;
68106;SDS011;54892;47.488;19.026;2022-12-18T09:10:43;39.07;;;12.43;;
68106;SDS011;54892;47.488;19.026;2022-12-18T09:13:46;32.70;;;12.50;;
68106;SDS011;54892;47.488;19.026;2022-12-18T09:16:50;31.15;;;12.63;;
68106;SDS011;54892;47.488;19.026;2022-12-18T09:19:54;34.47;;;13.57;;
68106;SDS011;54892;47.488;19.026;2022-12-18T09:22:58;30.98;;;13.13;;
68106;SDS011;54892;47.488;19.026;2022-12-18T09:26:02;30.20;;;12.85;;
68106;SDS011;54892;47.488;19.026;2022-12-18T09:29:06;35.67;;;13.70;;
68106;SDS011;54892;47.488;19.026;2022-12-18T09:32:10;33.95;;;12.75;;
68106;SDS011;54892;47.488;19.026;2022-12-18T09:35:15;27.92;;;12.70;;
68106;SDS011;54892;47.488;19.026;2022-12-18T09:38:20;35.85;;;12.68;;
68106;SDS011;54892;47.488;19.026;2022-12-18T09:41:33;32.45;;;13.00;;
68106;SDS011;54892;47.488;19.026;2022-12-18T09:44:44;33.35;;;12.63;;
68106;SDS011;54892;47.488;19.026;2022-12-18T09:47:52;33.42;;;12.30;;
68106;SDS011;54892;47.488;19.026;2022-12-18T09:50:59;33.83;;;13.35;;
68106;SDS011;54892;47.488;19.026;2022-12-18T09:54:11;29.85;;;12.35;;
68106;SDS011;54892;47.488;19.026;2022-12-18T09:57:18;31.35;;;12.85;;
68106;SDS011;54892;47.488;19.026;2022-12-18T10:00:24;29.15;;;12.50;;
68106;SDS011;54892;47.488;19.026;2022-12-18T10:03:28;27.92;;;12.27;;
68106;SDS011;54892;47.488;19.026;2022-12-18T10:06:33;29.70;;;12.32;;
68106;SDS011;54892;47.488;19.026;2022-12-18T10:09:44;33.13;;;13.10;;
68106;SDS011;54892;47.488;19.026;2022-12-18T10:13:00;28.80;;;12.35;;
68106;SDS011;54892;47.488;19.026;2022-12-18T10:16:12;35.97;;;12.90;;
68106;SDS011;54892;47.488;19.026;2022-12-18T10:19:22;31.87;;;13.18;;
68106;SDS011;54892;47.488;19.026;2022-12-18T10:22:36;33.75;;;13.10;;
68106;SDS011;54892;47.488;19.026;2022-12-18T10:25:53;36.55;;;12.98;;
68106;SDS011;54892;47.488;19.026;2022-12-18T10:29:00;31.42;;;12.30;;
68106;SDS011;54892;47.488;19.026;2022-12-18T10:32:06;31.70;;;12.70;;
68106;SDS011;54892;47.488;19.026;2022-12-18T10:35:16;30.00;;;12.40;;
68106;SDS011;54892;47.488;19.026;2022-12-18T10:38:23;29.98;;;13.02;;
68106;SDS011;54892;47.488;19.026;2022-12-18T10:41:30;30.58;;;12.27;;
68106;SDS011;54892;47.488;19.026;2022-12-18T10:44:34;31.52;;;12.05;;
68106;SDS011;54892;47.488;19.026;2022-12-18T10:47:41;33.75;;;13.77;;
68106;SDS011;54892;47.488;19.026;2022-12-18T10:50:46;29.67;;;12.00;;
68106;SDS011;54892;47.488;19.026;2022-12-18T10:54:13;34.17;;;12.35;;
68106;SDS011;54892;47.488;19.026;2022-12-18T10:57:30;30.50;;;12.95;;
68106;SDS011;54892;47.488;19.026;2022-12-18T11:00:37;33.58;;;14.20;;
68106;SDS011;54892;47.488;19.026;2022-12-18T11:03:42;33.05;;;13.27;;
68106;SDS011;54892;47.488;19.026;2022-12-18T11:06:54;31.40;;;13.65;;
68106;SDS011;54892;47.488;19.026;2022-12-18T11:09:59;32.70;;;12.52;;
68106;SDS011;54892;47.488;19.026;2022-12-18T11:13:16;30.70;;;13.60;;
68106;SDS011;54892;47.488;19.026;2022-12-18T11:16:22;29.00;;;11.80;;
68106;SDS011;54892;47.488;19.026;2022-12-18T11:19:32;31.87;;;12.45;;
68106;SDS011;54892;47.488;19.026;2022-12-18T11:22:36;29.08;;;12.18;;
68106;SDS011;54892;47.488;19.026;2022-12-18T11:25:41;31.75;;;12.75;;
68106;SDS011;54892;47.488;19.026;2022-12-18T11:29:07;27.50;;;11.32;;
68106;SDS011;54892;47.488;19.026;2022-12-18T11:32:24;30.73;;;12.68;;
68106;SDS011;54892;47.488;19.026;2022-12-18T11:35:37;28.95;;;11.82;;
68106;SDS011;54892;47.488;19.026;2022-12-18T11:38:44;31.73;;;12.20;;
68106;SDS011;54892;47.488;19.026;2022-12-18T11:41:52;30.90;;;12.48;;
68106;SDS011;54892;47.488;19.026;2022-12-18T11:45:25;27.20;;;12.37;;
68106;SDS011;54892;47.488;19.026;2022-12-18T11:48:32;26.42;;;11.73;;
68106;SDS011;54892;47.488;19.026;2022-12-18T11:51:41;27.50;;;11.88;;
68106;SDS011;54892;47.488;19.026;2022-12-18T11:54:52;30.58;;;11.73;;
68106;SDS011;54892;47.488;19.026;2022-12-18T11:57:59;33.20;;;11.20;;
68106;SDS011;54892;47.488;19.026;2022-12-18T12:01:13;24.45;;;10.65;;
68106;SDS011;54892;47.488;19.026;2022-12-18T12:04:46;28.67;;;11.05;;
68106;SDS011;54892;47.488;19.026;2022-12-18T12:07:59;32.83;;;11.40;;
68106;SDS011;54892;47.488;19.026;2022-12-18T12:11:09;31.33;;;11.85;;
68106;SDS011;54892;47.488;19.026;2022-12-18T12:14:23;27.95;;;12.85;;
68106;SDS011;54892;47.488;19.026;2022-12-18T12:17:40;23.85;;;11.40;;
68106;SDS011;54892;47.488;19.026;2022-12-18T12:20:49;27.50;;;10.82;;
68106;SDS011;54892;47.488;19.026;2022-12-18T12:24:02;29.92;;;11.77;;
68106;SDS011;54892;47.488;19.026;2022-12-18T12:27:26;31.23;;;12.10;;
68106;SDS011;54892;47.488;19.026;2022-12-18T12:30:44;28.27;;;11.25;;
68106;SDS011;54892;47.488;19.026;2022-12-18T12:34:01;26.00;;;11.48;;
68106;SDS011;54892;47.488;19.026;2022-12-18T12:37:17;28.33;;;11.80;;
68106;SDS011;54892;47.488;19.026;2022-12-18T12:40:30;26.23;;;9.95;;
68106;SDS011;54892;47.488;19.026;2022-12-18T12:43:57;25.52;;;10.90;;
68106;SDS011;54892;47.488;19.026;2022-12-18T12:47:07;31.87;;;11.55;;
68106;SDS011;54892;47.488;19.026;2022-12-18T12:50:18;26.60;;;10.13;;
68106;SDS011;54892;47.488;19.026;2022-12-18T12:53:25;27.10;;;10.65;;
68106;SDS011;54892;47.488;19.026;2022-12-18T12:59:57;29.12;;;11.95;;
68106;SDS011;54892;47.488;19.026;2022-12-18T13:03:07;34.50;;;12.43;;
68106;SDS011;54892;47.488;19.026;2022-12-18T13:06:23;31.80;;;13.35;;
68106;SDS011;54892;47.488;19.026;2022-12-18T13:09:36;31.12;;;13.77;;
68106;SDS011;54892;47.488;19.026;2022-12-18T13:13:17;34.63;;;13.48;;
68106;SDS011;54892;47.488;19.026;2022-12-18T13:16:21;36.25;;;14.25;;
68106;SDS011;54892;47.488;19.026;2022-12-18T13:19:26;36.92;;;13.55;;
68106;SDS011;54892;47.488;19.026;2022-12-18T13:22:33;41.53;;;14.75;;
68106;SDS011;54892;47.488;19.026;2022-12-18T13:25:38;37.42;;;14.63;;
68106;SDS011;54892;47.488;19.026;2022-12-18T13:28:51;32.75;;;13.85;;
68106;SDS011;54892;47.488;19.026;2022-12-18T13:32:00;33.58;;;15.70;;
68106;SDS011;54892;47.488;19.026;2022-12-18T13:46:02;40.00;;;17.10;;
68106;SDS011;54892;47.488;19.026;2022-12-18T13:49:22;41.47;;;16.62;;
68106;SDS011;54892;47.488;19.026;2022-12-18T13:52:28;42.55;;;17.23;;
68106;SDS011;54892;47.488;19.026;2022-12-18T13:55:40;44.45;;;16.73;;
68106;SDS011;54892;47.488;19.026;2022-12-18T13:59:02;40.80;;;17.58;;
68106;SDS011;54892;47.488;19.026;2022-12-18T14:02:20;38.42;;;15.98;;
68106;SDS011;54892;47.488;19.026;2022-12-18T14:05:26;39.45;;;17.12;;
68106;SDS011;54892;47.488;19.026;2022-12-18T14:08:37;40.58;;;17.67;;
68106;SDS011;54892;47.488;19.026;2022-12-18T14:11:47;46.60;;;18.25;;
68106;SDS011;54892;47.488;19.026;2022-12-18T14:14:52;42.55;;;17.17;;
68106;SDS011;54892;47.488;19.026;2022-12-18T14:17:57;42.95;;;17.27;;
68106;SDS011;54892;47.488;19.026;2022-12-18T14:21:03;46.80;;;17.62;;
68106;SDS011;54892;47.488;19.026;2022-12-18T14:24:12;46.63;;;17.37;;
68106;SDS011;54892;47.488;19.026;2022-12-18T14:27:23;43.42;;;17.85;;
68106;SDS011;54892;47.488;19.026;2022-12-18T14:30:29;43.15;;;17.45;;
68106;SDS011;54892;47.488;19.026;2022-12-18T14:33:34;42.80;;;17.00;;
68106;SDS011;54892;47.488;19.026;2022-12-18T14:36:44;40.53;;;17.02;;
68106;SDS011;54892;47.488;19.026;2022-12-18T14:39:56;39.13;;;16.00;;
68106;SDS011;54892;47.488;19.026;2022-12-18T14:43:02;41.67;;;17.17;;
68106;SDS011;54892;47.488;19.026;2022-12-18T14:46:24;34.55;;;16.00;;
68106;SDS011;54892;47.488;19.026;2022-12-18T14:49:32;43.10;;;16.45;;
68106;SDS011;54892;47.488;19.026;2022-12-18T14:52:38;41.70;;;16.15;;
68106;SDS011;54892;47.488;19.026;2022-12-18T14:55:43;39.33;;;16.30;;
68106;SDS011;54892;47.488;19.026;2022-12-18T14:58:51;43.70;;;16.70;;
68106;SDS011;54892;47.488;19.026;2022-12-18T15:02:00;40.35;;;17.17;;
68106;SDS011;54892;47.488;19.026;2022-12-18T15:05:16;43.72;;;16.83;;
68106;SDS011;54892;47.488;19.026;2022-12-18T15:08:28;40.55;;;16.55;;
68106;SDS011;54892;47.488;19.026;2022-12-18T15:11:36;44.40;;;17.77;;
68106;SDS011;54892;47.488;19.026;2022-12-18T15:15:00;39.22;;;16.48;;
68106;SDS011;54892;47.488;19.026;2022-12-18T15:21:17;49.22;;;17.65;;
68106;SDS011;54892;47.488;19.026;2022-12-18T15:24:24;43.70;;;17.62;;
68106;SDS011;54892;47.488;19.026;2022-12-18T15:27:34;41.78;;;17.95;;
68106;SDS011;54892;47.488;19.026;2022-12-18T15:30:42;46.05;;;17.77;;
68106;SDS011;54892;47.488;19.026;2022-12-18T15:34:10;38.83;;;17.27;;
68106;SDS011;54892;47.488;19.026;2022-12-18T15:37:17;51.60;;;19.35;;
68106;SDS011;54892;47.488;19.026;2022-12-18T15:40:22;47.00;;;19.07;;
68106;SDS011;54892;47.488;19.026;2022-12-18T15:43:28;46.50;;;19.60;;
68106;SDS011;54892;47.488;19.026;2022-12-18T15:46:42;56.90;;;19.50;;
68106;SDS011;54892;47.488;19.026;2022-12-18T15:49:48;50.95;;;19.73;;
68106;SDS011;54892;47.488;19.026;2022-12-18T15:52:52;51.58;;;19.83;;
68106;SDS011;54892;47.488;19.026;2022-12-18T15:55:59;46.88;;;19.50;;
68106;SDS011;54892;47.488;19.026;2022-12-18T15:59:26;47.33;;;18.40;;
68106;SDS011;54892;47.488;19.026;2022-12-18T16:02:32;50.17;;;19.27;;
68106;SDS011;54892;47.488;19.026;2022-12-18T16:05:37;45.28;;;19.10;;
68106;SDS011;54892;47.488;19.026;2022-12-18T16:08:41;49.50;;;17.62;;
68106;SDS011;54892;47.488;19.026;2022-12-18T16:11:48;47.17;;;19.40;;
68106;SDS011;54892;47.488;19.026;2022-12-18T16:14:58;44.05;;;17.80;;
68106;SDS011;54892;47.488;19.026;2022-12-18T16:18:05;49.90;;;19.37;;
68106;SDS011;54892;47.488;19.026;2022-12-18T16:21:11;50.47;;;19.65;;
68106;SDS011;54892;47.488;19.026;2022-12-18T16:24:17;51.45;;;19.42;;
68106;SDS011;54892;47.488;19.026;2022-12-18T16:27:26;46.45;;;18.65;;
68106;SDS011;54892;47.488;19.026;2022-12-18T16:30:31;47.45;;;19.33;;
68106;SDS011;54892;47.488;19.026;2022-12-18T16:33:40;50.42;;;19.37;;
68106;SDS011;54892;47.488;19.026;2022-12-18T16:36:45;51.92;;;19.52;;
68106;SDS011;54892;47.488;19.026;2022-12-18T16:39:53;49.47;;;18.92;;
68106;SDS011;54892;47.488;19.026;2022-12-18T16:42:58;42.83;;;18.08;;
68106;SDS011;54892;47.488;19.026;2022-12-18T16:46:02;47.22;;;18.70;;
68106;SDS011;54892;47.488;19.026;2022-12-18T16:49:09;49.60;;;19.30;;
68106;SDS011;54892;47.488;19.026;2022-12-18T16:52:13;56.08;;;18.75;;
68106;SDS011;54892;47.488;19.026;2022-12-18T16:55:21;51.92;;;18.70;;
68106;SDS011;54892;47.488;19.026;2022-12-18T16:58:27;46.83;;;17.90;;
68106;SDS011;54892;47.488;19.026;2022-12-18T17:01:35;54.05;;;18.37;;
68106;SDS011;54892;47.488;19.026;2022-12-18T17:04:42;51.37;;;18.73;;
68106;SDS011;54892;47.488;19.026;2022-12-18T17:07:52;46.37;;;18.17;;
68106;SDS011;54892;47.488;19.026;2022-12-18T17:10:56;51.50;;;18.45;;
68106;SDS011;54892;47.488;19.026;2022-12-18T17:14:07;40.17;;;16.48;;
68106;SDS011;54892;47.488;19.026;2022-12-18T17:17:14;47.13;;;17.85;;
68106;SDS011;54892;47.488;19.026;2022-12-18T17:20:23;48.28;;;17.15;;
68106;SDS011;54892;47.488;19.026;2022-12-18T17:23:29;47.33;;;17.10;;
68106;SDS011;54892;47.488;19.026;2022-12-18T17:26:38;46.20;;;17.30;;
68106;SDS011;54892;47.488;19.026;2022-12-18T17:29:44;41.33;;;17.37;;
68106;SDS011;54892;47.488;19.026;2022-12-18T17:35:58;42.13;;;15.95;;
68106;SDS011;54892;47.488;19.026;2022-12-18T17:39:04;46.60;;;17.77;;
68106;SDS011;54892;47.488;19.026;2022-12-18T17:42:10;42.85;;;17.10;;
68106;SDS011;54892;47.488;19.026;2022-12-18T17:45:22;48.33;;;18.65;;
68106;SDS011;54892;47.488;19.026;2022-12-18T17:48:29;46.20;;;17.55;;
68106;SDS011;54892;47.488;19.026;2022-12-18T17:51:35;47.87;;;17.67;;
68106;SDS011;54892;47.488;19.026;2022-12-18T17:54:41;41.97;;;16.87;;
68106;SDS011;54892;47.488;19.026;2022-12-18T17:57:46;41.83;;;16.75;;
68106;SDS011;54892;47.488;19.026;2022-12-18T18:00:53;35.40;;;15.63;;
68106;SDS011;54892;47.488;19.026;2022-12-18T18:03:58;46.45;;;16.62;;
68106;SDS011;54892;47.488;19.026;2022-12-18T18:07:05;41.00;;;15.85;;
68106;SDS011;54892;47.488;19.026;2022-12-18T18:10:12;46.55;;;17.12;;
68106;SDS011;54892;47.488;19.026;2022-12-18T18:13:18;53.67;;;18.20;;
68106;SDS011;54892;47.488;19.026;2022-12-18T18:16:47;47.72;;;18.75;;
68106;SDS011;54892;47.488;19.026;2022-12-18T18:19:53;52.15;;;19.00;;
68106;SDS011;54892;47.488;19.026;2022-12-18T18:23:00;48.25;;;20.90;;
68106;SDS011;54892;47.488;19.026;2022-12-18T18:26:05;46.25;;;19.35;;
68106;SDS011;54892;47.488;19.026;2022-12-18T18:29:13;49.67;;;19.02;;